Time;durP1;ratioP1;P1;durP2;ratioP2;P2;SDS_P1;SDS_P2;PMS_P1;PMS_P2;Temp;Humidity;BMP_temperature;BMP_pressure;BME280_temperature;BME280_humidity;BME280_pressure;Samples;Min_cycle;Max_cycle;Signal;HPM_P1;HPM_P2
2023/02/24 00:00:36;;;;;;;46.17;31.50;;;;;;;;;;4391526;32;319190;-78
2023/02/24 00:03:09;;;;;;;51.20;31.53;;;;;;;;;;4401578;32;318853;-82
2023/02/24 00:05:41;;;;;;;51.73;30.73;;;;;;;;;;4390399;32;417957;-79
2023/02/24 00:08:08;;;;;;;52.10;31.43;;;;;;;;;;4388703;32;319361;-81
2023/02/24 00:10:36;;;;;;;53.53;31.73;;;;;;;;;;4403097;32;318920;-78
2023/02/24 00:13:03;;;;;;;51.37;34.13;;;;;;;;;;4402335;32;318703;-80
2023/02/24 00:15:31;;;;;;;50.33;33.30;;;;;;;;;;4392265;32;318693;-81
2023/02/24 00:17:59;;;;;;;50.13;31.00;;;;;;;;;;4400884;32;319146;-81
2023/02/24 00:20:34;;;;;;;44.37;30.63;;;;;;;;;;4389863;32;388635;-79
2023/02/24 00:23:02;;;;;;;45.43;27.73;;;;;;;;;;4402488;32;318870;-81
2023/02/24 00:25:29;;;;;;;43.27;27.57;;;;;;;;;;4391962;32;318832;-79
2023/02/24 00:28:00;;;;;;;42.10;27.20;;;;;;;;;;4402841;32;318798;-80
2023/02/24 00:30:28;;;;;;;44.17;27.67;;;;;;;;;;4391567;32;318843;-79
2023/02/24 00:32:59;;;;;;;44.03;27.20;;;;;;;;;;4402356;32;318784;-78
2023/02/24 00:35:28;;;;;;;41.43;26.67;;;;;;;;;;4392004;32;319004;-81
2023/02/24 00:37:57;;;;;;;44.57;28.50;;;;;;;;;;4403152;32;319274;-80
2023/02/24 00:40:25;;;;;;;54.00;28.57;;;;;;;;;;4392203;32;318870;-79
2023/02/24 00:42:53;;;;;;;54.53;29.63;;;;;;;;;;4401665;32;318910;-78
2023/02/24 00:45:20;;;;;;;58.60;33.17;;;;;;;;;;4390465;32;319200;-78
2023/02/24 00:47:48;;;;;;;59.23;38.90;;;;;;;;;;4402332;32;318642;-79
2023/02/24 00:50:16;;;;;;;58.67;43.30;;;;;;;;;;4392095;32;319006;-77
2023/02/24 00:52:43;;;;;;;60.70;34.90;;;;;;;;;;4401934;32;343844;-80
2023/02/24 00:55:14;;;;;;;53.27;34.13;;;;;;;;;;4390988;32;319132;-81
2023/02/24 00:57:43;;;;;;;56.07;31.00;;;;;;;;;;4403214;32;318796;-81
2023/02/24 01:00:15;;;;;;;44.33;31.03;;;;;;;;;;4397263;32;318721;-81
2023/02/24 01:02:44;;;;;;;50.10;30.87;;;;;;;;;;4406771;32;318736;-80
2023/02/24 01:05:12;;;;;;;47.00;29.33;;;;;;;;;;4400264;32;318924;-90
2023/02/24 01:07:39;;;;;;;40.03;27.00;;;;;;;;;;4416543;32;317249;-79
2023/02/24 01:10:07;;;;;;;43.37;28.87;;;;;;;;;;4395712;32;318679;-82
2023/02/24 01:12:48;;;;;;;51.07;30.83;;;;;;;;;;4401205;32;319005;-80
2023/02/24 01:15:16;;;;;;;62.00;32.40;;;;;;;;;;4392138;32;318853;-81
2023/02/24 01:17:43;;;;;;;51.47;32.87;;;;;;;;;;4401014;32;318724;-82
2023/02/24 01:20:21;;;;;;;58.37;36.60;;;;;;;;;;4392372;32;319252;-79
2023/02/24 01:22:52;;;;;;;67.70;44.90;;;;;;;;;;4402661;32;319149;-81
2023/02/24 01:25:21;;;;;;;86.00;65.77;;;;;;;;;;4391384;32;318869;-80
2023/02/24 01:27:51;;;;;;;81.67;54.90;;;;;;;;;;4402118;32;354889;-80
2023/02/24 01:30:19;;;;;;;62.17;43.13;;;;;;;;;;4393844;32;318962;-80
2023/02/24 01:32:47;;;;;;;50.43;36.03;;;;;;;;;;4404387;32;319021;-81
2023/02/24 01:35:14;;;;;;;61.83;41.10;;;;;;;;;;4394975;32;318886;-79
2023/02/24 01:37:42;;;;;;;59.07;40.03;;;;;;;;;;4405160;32;318901;-80
2023/02/24 01:40:19;;;;;;;55.67;37.63;;;;;;;;;;4394376;32;318932;-81
2023/02/24 01:42:49;;;;;;;54.47;36.27;;;;;;;;;;4404985;32;318788;-79
2023/02/24 01:45:29;;;;;;;50.87;35.40;;;;;;;;;;4394615;32;319104;-81
2023/02/24 01:48:00;;;;;;;42.30;32.30;;;;;;;;;;4404359;32;318926;-80
2023/02/24 01:50:29;;;;;;;48.40;30.60;;;;;;;;;;4395362;32;318960;-79
2023/02/24 01:53:02;;;;;;;45.90;27.97;;;;;;;;;;4404385;32;318862;-79
2023/02/24 01:55:33;;;;;;;57.83;39.73;;;;;;;;;;4393738;32;319041;-81
2023/02/24 01:58:04;;;;;;;49.10;30.37;;;;;;;;;;4404377;32;318769;-80
2023/02/24 02:00:37;;;;;;;44.37;26.83;;;;;;;;;;4391206;32;418446;-80
2023/02/24 02:03:14;;;;;;;43.10;29.60;;;;;;;;;;4404888;32;318628;-78
2023/02/24 02:05:44;;;;;;;54.83;31.37;;;;;;;;;;4390994;32;418496;-80
2023/02/24 02:08:13;;;;;;;45.60;29.67;;;;;;;;;;4394039;32;319089;-81
2023/02/24 02:10:43;;;;;;;43.73;29.70;;;;;;;;;;4402620;32;326695;-79
2023/02/24 02:13:11;;;;;;;48.10;29.87;;;;;;;;;;4394094;32;318978;-81
2023/02/24 02:15:50;;;;;;;52.17;31.13;;;;;;;;;;4405430;32;318737;-79
2023/02/24 02:18:27;;;;;;;37.17;26.63;;;;;;;;;;4394137;32;318912;-81
2023/02/24 02:21:28;;;;;;;41.50;27.53;;;;;;;;;;4403270;32;318464;-79
2023/02/24 02:24:04;;;;;;;43.00;27.03;;;;;;;;;;4365310;32;419068;-81
2023/02/24 02:26:58;;;;;;;40.63;26.33;;;;;;;;;;4395137;32;319097;-79
2023/02/24 02:29:51;;;;;;;44.73;28.23;;;;;;;;;;4394503;32;318826;-81
2023/02/24 02:32:50;;;;;;;41.53;27.20;;;;;;;;;;4391547;32;319142;-79
2023/02/24 02:35:26;;;;;;;42.07;28.90;;;;;;;;;;4392715;32;319023;-81
2023/02/24 02:38:02;;;;;;;44.37;30.07;;;;;;;;;;4404584;32;318647;-81
2023/02/24 02:40:36;;;;;;;48.00;30.27;;;;;;;;;;4392939;32;318777;-80
2023/02/24 02:43:13;;;;;;;43.93;30.23;;;;;;;;;;4402715;32;343660;-82
2023/02/24 02:45:47;;;;;;;44.73;29.37;;;;;;;;;;4388998;32;419159;-78
2023/02/24 02:48:19;;;;;;;49.67;29.37;;;;;;;;;;4392479;32;318703;-79
2023/02/24 02:50:50;;;;;;;48.30;32.00;;;;;;;;;;4404062;32;318913;-80
2023/02/24 02:53:25;;;;;;;51.10;34.20;;;;;;;;;;4392618;32;318768;-80
2023/02/24 02:55:58;;;;;;;49.07;34.93;;;;;;;;;;4404736;32;317558;-80
2023/02/24 02:58:30;;;;;;;44.10;32.53;;;;;;;;;;4393359;32;319039;-80
2023/02/24 03:01:01;;;;;;;52.53;35.23;;;;;;;;;;4402540;32;318749;-80
2023/02/24 03:03:32;;;;;;;55.00;35.73;;;;;;;;;;4391861;32;318734;-78
2023/02/24 03:06:06;;;;;;;47.63;30.87;;;;;;;;;;4402709;32;319062;-79
2023/02/24 03:08:38;;;;;;;46.73;31.03;;;;;;;;;;4388489;32;418499;-79
2023/02/24 03:11:12;;;;;;;55.10;32.77;;;;;;;;;;4402204;32;318596;-82
2023/02/24 03:13:43;;;;;;;50.57;30.53;;;;;;;;;;4390302;32;420672;-78
2023/02/24 03:16:12;;;;;;;44.67;30.50;;;;;;;;;;4389493;32;351927;-78
2023/02/24 03:18:49;;;;;;;40.87;29.03;;;;;;;;;;4401760;32;318648;-80
2023/02/24 03:21:28;;;;;;;42.63;30.27;;;;;;;;;;4391939;32;318836;-81
2023/02/24 03:23:56;;;;;;;49.93;32.57;;;;;;;;;;4403208;32;318837;-81
2023/02/24 03:26:28;;;;;;;63.47;36.47;;;;;;;;;;4393297;32;318970;-79
2023/02/24 03:29:01;;;;;;;58.93;35.87;;;;;;;;;;4400789;32;318751;-81
2023/02/24 03:31:33;;;;;;;63.40;33.97;;;;;;;;;;4392903;32;318832;-81
2023/02/24 03:34:06;;;;;;;52.77;32.87;;;;;;;;;;4402404;32;318920;-79
2023/02/24 03:36:35;;;;;;;54.27;35.27;;;;;;;;;;4390047;32;418456;-80
2023/02/24 03:39:10;;;;;;;65.43;36.43;;;;;;;;;;4402042;32;318859;-79
2023/02/24 03:41:42;;;;;;;64.33;35.87;;;;;;;;;;4389399;32;418023;-80
2023/02/24 03:44:11;;;;;;;57.33;36.17;;;;;;;;;;4390353;32;318854;-79
2023/02/24 03:46:41;;;;;;;59.60;37.63;;;;;;;;;;4400713;32;318904;-80
2023/02/24 03:49:15;;;;;;;55.60;37.87;;;;;;;;;;4390817;32;318845;-79
2023/02/24 03:51:47;;;;;;;52.83;35.87;;;;;;;;;;4402197;32;319128;-79
2023/02/24 03:54:29;;;;;;;52.07;33.80;;;;;;;;;;4391257;32;319060;-78
2023/02/24 03:57:09;;;;;;;60.83;37.87;;;;;;;;;;4401916;32;318889;-79
2023/02/24 03:59:46;;;;;;;50.90;36.67;;;;;;;;;;4389363;32;391490;-80
2023/02/24 04:02:20;;;;;;;50.90;32.47;;;;;;;;;;4391804;32;320019;-81
2023/02/24 04:04:54;;;;;;;52.73;33.20;;;;;;;;;;4401577;32;318897;-81
2023/02/24 04:07:32;;;;;;;64.50;38.93;;;;;;;;;;4391345;32;318782;-80
2023/02/24 04:10:08;;;;;;;59.40;39.07;;;;;;;;;;4387813;32;318141;-80
2023/02/24 04:12:45;;;;;;;55.90;36.63;;;;;;;;;;4390349;32;389771;-77
2023/02/24 04:15:21;;;;;;;55.57;37.13;;;;;;;;;;4389989;32;318865;-81
2023/02/24 04:17:52;;;;;;;61.50;38.00;;;;;;;;;;4401393;32;318786;-81
2023/02/24 04:20:23;;;;;;;51.73;35.93;;;;;;;;;;4390444;32;318863;-81
2023/02/24 04:23:01;;;;;;;57.27;38.43;;;;;;;;;;4385219;32;339243;-89
2023/02/24 04:25:29;;;;;;;63.93;42.13;;;;;;;;;;4392045;32;318718;-81
2023/02/24 04:28:01;;;;;;;83.83;54.77;;;;;;;;;;4399725;32;318905;-80
2023/02/24 04:30:34;;;;;;;99.70;59.27;;;;;;;;;;4391364;32;319110;-79
2023/02/24 04:33:02;;;;;;;83.37;54.60;;;;;;;;;;4402603;32;318774;-78
2023/02/24 04:35:29;;;;;;;79.57;51.70;;;;;;;;;;4392757;32;318712;-78
2023/02/24 04:37:59;;;;;;;62.70;43.37;;;;;;;;;;4401610;32;318587;-80
2023/02/24 04:40:27;;;;;;;65.10;43.50;;;;;;;;;;4392062;32;318926;-81
2023/02/24 04:42:55;;;;;;;60.63;41.10;;;;;;;;;;4403098;32;319490;-81
2023/02/24 04:45:24;;;;;;;65.57;45.63;;;;;;;;;;4391552;32;318679;-81
2023/02/24 04:47:56;;;;;;;62.47;42.57;;;;;;;;;;4402904;32;318537;-80
2023/02/24 04:50:26;;;;;;;54.50;39.20;;;;;;;;;;4391392;32;318657;-80
2023/02/24 04:52:55;;;;;;;56.40;37.90;;;;;;;;;;4403767;32;318619;-79
2023/02/24 04:55:28;;;;;;;54.30;36.43;;;;;;;;;;4394514;32;318513;-81
2023/02/24 04:57:56;;;;;;;64.20;42.13;;;;;;;;;;4412393;32;318241;-89
2023/02/24 05:00:25;;;;;;;56.63;41.73;;;;;;;;;;4400813;32;318513;-93
2023/02/24 05:02:55;;;;;;;59.47;38.30;;;;;;;;;;4403623;32;318849;-82
2023/02/24 05:05:26;;;;;;;68.23;41.50;;;;;;;;;;4390505;32;318827;-81
2023/02/24 05:07:54;;;;;;;69.93;47.93;;;;;;;;;;4400610;32;320178;-79
2023/02/24 05:10:26;;;;;;;80.13;46.30;;;;;;;;;;4388868;32;347545;-80
2023/02/24 05:12:56;;;;;;;72.90;43.43;;;;;;;;;;4400701;32;318908;-80
2023/02/24 05:15:29;;;;;;;63.83;42.67;;;;;;;;;;4390580;32;319113;-85
2023/02/24 05:17:59;;;;;;;59.53;39.37;;;;;;;;;;4401026;32;318804;-80
2023/02/24 05:23:11;;;;;;;54.77;36.23;;;;;;;;;;4391169;32;338679;-80
2023/02/24 05:25:41;;;;;;;60.83;37.40;;;;;;;;;;4400589;32;318643;-79
2023/02/24 05:28:10;;;;;;;57.37;36.90;;;;;;;;;;4390121;32;318905;-80
2023/02/24 05:30:38;;;;;;;59.43;39.73;;;;;;;;;;4401414;32;318624;-78
2023/02/24 05:33:06;;;;;;;67.37;46.37;;;;;;;;;;4402408;32;319042;-80
2023/02/24 05:35:37;;;;;;;63.67;40.87;;;;;;;;;;4387688;32;418894;-78
2023/02/24 05:38:07;;;;;;;60.13;42.00;;;;;;;;;;4401227;32;318850;-78
2023/02/24 05:40:34;;;;;;;64.50;45.40;;;;;;;;;;4387326;32;418630;-80
2023/02/24 05:43:04;;;;;;;65.30;40.63;;;;;;;;;;4400822;32;319085;-80
2023/02/24 05:45:31;;;;;;;52.50;35.07;;;;;;;;;;4390766;32;318735;-79
2023/02/24 05:47:59;;;;;;;55.70;37.90;;;;;;;;;;4400011;32;318838;-80
2023/02/24 05:50:26;;;;;;;70.13;41.87;;;;;;;;;;4391934;32;319106;-80
2023/02/24 05:52:54;;;;;;;74.60;48.70;;;;;;;;;;4399203;32;318882;-83
2023/02/24 05:55:22;;;;;;;99.57;55.57;;;;;;;;;;4389162;32;318566;-82
2023/02/24 05:57:52;;;;;;;82.77;51.73;;;;;;;;;;4400694;32;318669;-83
2023/02/24 06:00:24;;;;;;;89.93;52.43;;;;;;;;;;4391454;32;318641;-78
2023/02/24 06:02:52;;;;;;;73.67;44.60;;;;;;;;;;4400463;32;318683;-81
2023/02/24 06:05:26;;;;;;;64.07;41.50;;;;;;;;;;4389935;32;318868;-79
2023/02/24 06:08:03;;;;;;;49.97;36.33;;;;;;;;;;4401309;32;318658;-87
2023/02/24 06:10:33;;;;;;;59.23;39.13;;;;;;;;;;4390135;32;347546;-81
2023/02/24 06:13:02;;;;;;;69.63;43.13;;;;;;;;;;4401404;32;318646;-81
2023/02/24 06:15:31;;;;;;;81.90;45.20;;;;;;;;;;4393056;32;318647;-83
2023/02/24 06:17:59;;;;;;;75.43;42.10;;;;;;;;;;4403958;32;319086;-81
2023/02/24 06:20:31;;;;;;;70.65;41.83;;;;;;;;;;4392849;32;318735;-81
2023/02/24 06:23:02;;;;;;;63.23;41.47;;;;;;;;;;4402251;32;317558;-80
2023/02/24 06:25:32;;;;;;;68.00;42.73;;;;;;;;;;4393802;32;318948;-81
2023/02/24 06:28:00;;;;;;;64.37;44.37;;;;;;;;;;4404357;32;319106;-80
2023/02/24 06:30:28;;;;;;;65.87;44.80;;;;;;;;;;4392798;32;318771;-82
2023/02/24 06:32:57;;;;;;;74.63;47.17;;;;;;;;;;4404022;32;318751;-84
2023/02/24 06:35:24;;;;;;;63.47;44.03;;;;;;;;;;4390330;32;318152;-81
2023/02/24 06:37:54;;;;;;;65.83;41.57;;;;;;;;;;4401393;32;318930;-79
2023/02/24 06:40:22;;;;;;;70.27;39.57;;;;;;;;;;4391663;32;319164;-81
2023/02/24 06:42:53;;;;;;;80.47;43.80;;;;;;;;;;4403982;32;318759;-81
2023/02/24 06:45:20;;;;;;;73.73;44.87;;;;;;;;;;4392243;32;319127;-82
2023/02/24 06:47:49;;;;;;;87.13;59.63;;;;;;;;;;4402683;32;319074;-81
2023/02/24 06:50:22;;;;;;;92.30;61.53;;;;;;;;;;4391426;32;318689;-82
2023/02/24 06:52:52;;;;;;;103.30;59.27;;;;;;;;;;4403236;32;318693;-81
2023/02/24 06:55:28;;;;;;;92.57;56.60;;;;;;;;;;4392646;32;319865;-81
2023/02/24 06:57:57;;;;;;;119.33;78.60;;;;;;;;;;4404152;32;318844;-81
2023/02/24 07:00:35;;;;;;;124.70;79.20;;;;;;;;;;4393051;32;320000;-82
2023/02/24 07:03:14;;;;;;;120.97;77.73;;;;;;;;;;4401817;32;319868;-81
2023/02/24 07:05:52;;;;;;;108.67;68.50;;;;;;;;;;4387919;32;419526;-84
2023/02/24 07:08:21;;;;;;;97.43;62.53;;;;;;;;;;4390081;32;319689;-85
2023/02/24 07:10:54;;;;;;;107.03;71.13;;;;;;;;;;4401763;32;318530;-86
2023/02/24 07:13:23;;;;;;;121.13;66.37;;;;;;;;;;4390915;32;319852;-82
2023/02/24 07:15:50;;;;;;;104.73;70.03;;;;;;;;;;4403620;32;319809;-80
2023/02/24 07:18:18;;;;;;;92.93;62.47;;;;;;;;;;4389541;32;319898;-81
2023/02/24 07:20:47;;;;;;;115.67;68.17;;;;;;;;;;4402339;32;318650;-80
2023/02/24 07:23:17;;;;;;;106.03;68.87;;;;;;;;;;4391296;32;319669;-81
2023/02/24 07:25:46;;;;;;;125.03;74.27;;;;;;;;;;4401257;32;320024;-78
2023/02/24 07:28:13;;;;;;;113.37;69.17;;;;;;;;;;4391719;32;319728;-80
2023/02/24 07:30:42;;;;;;;96.23;59.73;;;;;;;;;;4401552;32;320087;-81
2023/02/24 07:33:09;;;;;;;104.97;62.03;;;;;;;;;;4392043;32;318861;-80
2023/02/24 07:35:39;;;;;;;96.83;59.07;;;;;;;;;;4400588;32;319788;-82
2023/02/24 07:38:08;;;;;;;84.37;50.13;;;;;;;;;;4403717;32;318734;-81
2023/02/24 07:40:35;;;;;;;69.87;43.60;;;;;;;;;;4389606;32;418840;-80
2023/02/24 07:43:05;;;;;;;58.20;37.57;;;;;;;;;;4401936;32;318832;-81
2023/02/24 07:45:33;;;;;;;65.27;40.90;;;;;;;;;;4390049;32;417760;-81
2023/02/24 07:48:01;;;;;;;67.33;42.97;;;;;;;;;;4401113;32;318738;-83
2023/02/24 07:50:31;;;;;;;59.83;39.33;;;;;;;;;;4391753;32;318622;-81
2023/02/24 07:53:02;;;;;;;87.27;51.67;;;;;;;;;;4402668;32;318711;-80
2023/02/24 07:55:34;;;;;;;80.63;46.63;;;;;;;;;;4390514;32;328835;-82
2023/02/24 07:58:04;;;;;;;75.67;48.60;;;;;;;;;;4401447;32;349127;-80
2023/02/24 08:00:58;;;;;;;69.77;44.13;;;;;;;;;;4390475;32;318996;-80
2023/02/24 08:03:21;;;;;;;56.87;39.57;;;;;;;;;;4391512;32;318680;-82
2023/02/24 08:05:49;;;;;;;54.73;36.97;;;;;;;;;;4400826;32;354236;-82
2023/02/24 08:08:19;;;;;;;56.17;36.40;;;;;;;;;;4391769;32;319042;-80
2023/02/24 08:10:48;;;;;;;53.33;37.80;;;;;;;;;;4400814;32;318417;-80
2023/02/24 08:13:17;;;;;;;51.83;35.17;;;;;;;;;;4389004;32;318526;-82
2023/02/24 08:15:54;;;;;;;49.43;33.33;;;;;;;;;;4401981;32;318773;-81
2023/02/24 08:18:22;;;;;;;40.03;28.57;;;;;;;;;;4390237;32;318677;-85
2023/02/24 08:20:51;;;;;;;42.20;30.57;;;;;;;;;;4403001;32;318920;-83
2023/02/24 08:23:18;;;;;;;45.97;28.47;;;;;;;;;;4391635;32;318968;-80
2023/02/24 08:25:46;;;;;;;36.77;27.17;;;;;;;;;;4401197;32;318555;-82
2023/02/24 08:28:15;;;;;;;44.27;30.67;;;;;;;;;;4391304;32;318980;-82
2023/02/24 08:30:44;;;;;;;54.43;35.83;;;;;;;;;;4401948;32;318552;-87
2023/02/24 08:33:16;;;;;;;51.47;31.43;;;;;;;;;;4388833;32;318863;-85
2023/02/24 08:35:44;;;;;;;47.83;29.20;;;;;;;;;;4400186;32;318874;-84
2023/02/24 08:38:14;;;;;;;42.77;28.17;;;;;;;;;;4392530;32;318655;-83
2023/02/24 08:40:53;;;;;;;42.53;32.07;;;;;;;;;;4401738;32;318677;-82
2023/02/24 08:43:33;;;;;;;42.03;28.17;;;;;;;;;;4396509;32;318628;-83
2023/02/24 08:46:09;;;;;;;40.50;28.83;;;;;;;;;;4410460;32;318784;-80
2023/02/24 08:48:41;;;;;;;46.40;33.77;;;;;;;;;;4394458;32;418070;-82
2023/02/24 08:51:16;;;;;;;50.83;29.57;;;;;;;;;;4384253;32;318549;-86
2023/02/24 08:53:46;;;;;;;66.93;34.07;;;;;;;;;;4403587;32;318951;-85
2023/02/24 08:56:22;;;;;;;53.63;32.67;;;;;;;;;;4392493;32;318655;-81
2023/02/24 08:58:55;;;;;;;52.33;31.27;;;;;;;;;;4401506;32;318942;-82
2023/02/24 09:01:27;;;;;;;44.40;31.00;;;;;;;;;;4390580;32;322960;-85
2023/02/24 09:04:09;;;;;;;48.97;33.50;;;;;;;;;;4401573;32;318857;-84
2023/02/24 09:06:42;;;;;;;47.07;30.47;;;;;;;;;;4392520;32;422622;-83
2023/02/24 09:09:19;;;;;;;45.67;31.40;;;;;;;;;;4394659;32;318670;-82
2023/02/24 09:11:54;;;;;;;53.93;33.57;;;;;;;;;;4401311;32;319016;-84
2023/02/24 09:14:26;;;;;;;55.50;29.53;;;;;;;;;;4377970;32;335731;-83
2023/02/24 09:17:04;;;;;;;49.53;29.60;;;;;;;;;;4402847;32;318571;-83
2023/02/24 09:22:39;;;;;;;43.40;30.27;;;;;;;;;;4389839;32;318877;-83
2023/02/24 09:25:20;;;;;;;39.03;27.87;;;;;;;;;;4401276;32;318554;-84
2023/02/24 09:27:53;;;;;;;45.30;28.70;;;;;;;;;;4388341;32;418533;-84
2023/02/24 09:33:21;;;;;;;36.57;27.47;;;;;;;;;;4392983;32;319631;-83
2023/02/24 09:36:08;;;;;;;37.53;26.80;;;;;;;;;;4399968;32;318959;-83
2023/02/24 09:41:32;;;;;;;43.27;28.87;;;;;;;;;;4390711;32;318558;-83
2023/02/24 09:44:06;;;;;;;38.80;30.37;;;;;;;;;;4395318;32;318565;-82
2023/02/24 09:46:41;;;;;;;42.90;27.00;;;;;;;;;;4368035;32;390721;-83
2023/02/24 09:49:16;;;;;;;39.10;26.47;;;;;;;;;;4390331;32;318706;-83
2023/02/24 09:51:44;;;;;;;39.93;26.03;;;;;;;;;;4396173;32;319149;-84
2023/02/24 09:54:18;;;;;;;49.47;27.87;;;;;;;;;;4392707;32;318729;-81
2023/02/24 09:56:59;;;;;;;40.57;27.23;;;;;;;;;;4405151;32;318793;-81
2023/02/24 09:59:33;;;;;;;39.10;27.30;;;;;;;;;;4394083;32;318987;-83
2023/02/24 10:02:19;;;;;;;36.63;27.43;;;;;;;;;;4403663;32;318953;-82
2023/02/24 10:05:05;;;;;;;36.60;28.30;;;;;;;;;;4390404;32;419262;-82
2023/02/24 10:07:38;;;;;;;49.97;33.00;;;;;;;;;;4389539;32;419457;-82
2023/02/24 10:10:26;;;;;;;46.07;31.67;;;;;;;;;;4404634;32;318805;-82
2023/02/24 10:13:11;;;;;;;56.03;34.63;;;;;;;;;;4390307;32;422221;-83
2023/02/24 10:15:57;;;;;;;56.57;32.50;;;;;;;;;;4390603;32;419308;-84
2023/02/24 10:18:36;;;;;;;67.83;39.90;;;;;;;;;;4393628;32;318923;-83
2023/02/24 10:21:16;;;;;;;41.93;30.00;;;;;;;;;;4403751;32;319005;-83
2023/02/24 10:23:55;;;;;;;51.03;28.47;;;;;;;;;;4391727;32;419152;-84
2023/02/24 10:26:30;;;;;;;45.07;29.43;;;;;;;;;;4393847;32;318868;-82
2023/02/24 10:29:07;;;;;;;46.20;29.20;;;;;;;;;;4404461;32;318733;-85
2023/02/24 10:31:44;;;;;;;37.73;27.13;;;;;;;;;;4390905;32;419374;-83
2023/02/24 10:34:25;;;;;;;40.97;27.03;;;;;;;;;;4393694;32;318876;-82
2023/02/24 10:36:52;;;;;;;35.10;26.50;;;;;;;;;;4402268;32;317539;-83
2023/02/24 10:39:24;;;;;;;34.80;24.43;;;;;;;;;;4393597;32;318671;-83
2023/02/24 10:41:56;;;;;;;35.90;24.33;;;;;;;;;;4404141;32;318773;-81
2023/02/24 10:44:25;;;;;;;44.17;25.47;;;;;;;;;;4392749;32;318919;-79
2023/02/24 10:47:10;;;;;;;32.10;22.97;;;;;;;;;;4402607;32;318689;-80
2023/02/24 10:49:55;;;;;;;38.13;23.90;;;;;;;;;;4389700;32;419043;-81
2023/02/24 10:52:49;;;;;;;36.93;23.50;;;;;;;;;;4393431;32;318924;-81
2023/02/24 10:55:38;;;;;;;26.63;20.10;;;;;;;;;;4393308;32;318733;-83
2023/02/24 10:58:14;;;;;;;25.47;18.27;;;;;;;;;;4402161;32;318828;-81
2023/02/24 11:03:41;;;;;;;25.40;17.27;;;;;;;;;;4387958;32;358381;-81
2023/02/24 11:06:41;;;;;;;21.45;16.20;;;;;;;;;;4393234;32;319010;-81
2023/02/24 11:09:30;;;;;;;22.73;15.63;;;;;;;;;;4392585;32;318673;-81
2023/02/24 11:17:38;;;;;;;22.30;16.25;;;;;;;;;;4388992;32;390148;-80
2023/02/24 11:20:16;;;;;;;25.77;16.98;;;;;;;;;;4402014;32;318835;-81
2023/02/24 11:22:50;;;;;;;35.45;17.58;;;;;;;;;;4388349;32;419278;-81
2023/02/24 11:25:22;;;;;;;29.63;16.45;;;;;;;;;;4393632;32;318814;-81
2023/02/24 11:27:50;;;;;;;26.55;16.33;;;;;;;;;;4401366;32;318939;-82
2023/02/24 11:30:29;;;;;;;24.37;13.77;;;;;;;;;;4391589;32;318927;-83
2023/02/24 11:33:17;;;;;;;16.17;12.90;;;;;;;;;;4404213;32;318910;-81
2023/02/24 11:35:55;;;;;;;19.37;12.65;;;;;;;;;;4389317;32;419776;-81
2023/02/24 11:38:37;;;;;;;20.08;12.90;;;;;;;;;;4391749;32;318794;-82
2023/02/24 11:41:14;;;;;;;38.15;15.30;;;;;;;;;;4401231;32;318976;-83
2023/02/24 11:43:48;;;;;;;24.23;10.38;;;;;;;;;;4389888;32;419532;-84
2023/02/24 11:46:17;;;;;;;21.70;9.40;;;;;;;;;;4392544;32;319011;-82
2023/02/24 11:48:51;;;;;;;16.48;7.90;;;;;;;;;;4400474;32;317770;-83
2023/02/24 11:51:21;;;;;;;19.43;8.37;;;;;;;;;;4390754;32;317837;-83
2023/02/24 11:53:54;;;;;;;22.35;8.85;;;;;;;;;;4402800;32;317972;-83
2023/02/24 11:56:25;;;;;;;23.58;8.60;;;;;;;;;;4390942;32;318148;-82
2023/02/24 11:58:58;;;;;;;24.02;7.40;;;;;;;;;;4402119;32;346276;-80
2023/02/24 12:01:32;;;;;;;21.17;9.75;;;;;;;;;;4392038;32;317855;-80
2023/02/24 12:04:10;;;;;;;22.02;8.15;;;;;;;;;;4402753;32;317989;-85
2023/02/24 12:06:44;;;;;;;17.73;8.48;;;;;;;;;;4389139;32;416859;-80
2023/02/24 12:09:19;;;;;;;16.42;7.95;;;;;;;;;;4392313;32;318086;-79
2023/02/24 12:11:55;;;;;;;17.33;8.25;;;;;;;;;;4401327;32;317854;-84
2023/02/24 12:14:28;;;;;;;20.17;8.45;;;;;;;;;;4392449;32;317824;-81
2023/02/24 12:17:06;;;;;;;25.80;8.30;;;;;;;;;;4403634;32;317879;-84
2023/02/24 12:19:41;;;;;;;19.05;8.90;;;;;;;;;;4390237;32;418041;-81
2023/02/24 12:22:14;;;;;;;15.55;7.22;;;;;;;;;;4392300;32;317859;-81
2023/02/24 12:24:48;;;;;;;20.15;7.90;;;;;;;;;;4403074;32;317945;-82
2023/02/24 12:27:23;;;;;;;29.00;10.15;;;;;;;;;;4392822;32;317693;-83
2023/02/24 12:30:05;;;;;;;21.80;8.77;;;;;;;;;;4403048;32;318776;-82
2023/02/24 12:32:46;;;;;;;22.70;7.32;;;;;;;;;;4391416;32;388822;-82
2023/02/24 12:35:18;;;;;;;26.25;7.50;;;;;;;;;;4390559;32;318204;-81
2023/02/24 12:38:02;;;;;;;21.60;8.48;;;;;;;;;;4408258;32;317554;-80
2023/02/24 12:40:40;;;;;;;31.77;9.77;;;;;;;;;;4398504;32;317933;-83
2023/02/24 12:43:21;;;;;;;17.37;9.25;;;;;;;;;;4405103;32;317272;-82
2023/02/24 12:45:55;;;;;;;22.62;9.00;;;;;;;;;;4411015;32;352191;-80
2023/02/24 12:48:46;;;;;;;32.28;9.23;;;;;;;;;;4391514;32;318219;-81
2023/02/24 12:51:21;;;;;;;21.23;8.85;;;;;;;;;;4392110;32;317774;-82
2023/02/24 12:53:53;;;;;;;31.83;9.77;;;;;;;;;;4402375;32;318013;-82
2023/02/24 12:56:26;;;;;;;25.90;8.43;;;;;;;;;;4392467;32;318044;-83
2023/02/24 12:58:59;;;;;;;19.83;8.02;;;;;;;;;;4402880;32;317875;-82
2023/02/24 13:01:31;;;;;;;21.83;8.63;;;;;;;;;;4391255;32;317849;-82
2023/02/24 13:04:10;;;;;;;27.50;9.50;;;;;;;;;;4401741;32;318002;-82
2023/02/24 13:06:57;;;;;;;22.87;7.87;;;;;;;;;;4388697;32;421203;-82
2023/02/24 13:09:32;;;;;;;16.40;6.33;;;;;;;;;;4390054;32;341561;-81
2023/02/24 13:12:06;;;;;;;23.20;8.07;;;;;;;;;;4402577;32;317643;-83
2023/02/24 13:14:36;;;;;;;29.17;7.82;;;;;;;;;;4389439;32;418137;-83
2023/02/24 13:17:18;;;;;;;21.73;7.30;;;;;;;;;;4401844;32;318135;-81
2023/02/24 13:19:46;;;;;;;16.25;7.65;;;;;;;;;;4388825;32;418011;-83
2023/02/24 13:22:40;;;;;;;30.30;9.43;;;;;;;;;;4391996;32;318168;-83
2023/02/24 13:25:31;;;;;;;19.00;7.47;;;;;;;;;;4391352;32;317758;-85
2023/02/24 13:28:02;;;;;;;24.07;7.87;;;;;;;;;;4400981;32;316578;-82
2023/02/24 13:30:37;;;;;;;22.08;8.15;;;;;;;;;;4394136;32;317669;-82
2023/02/24 13:33:20;;;;;;;32.88;10.20;;;;;;;;;;4404184;32;317879;-80
2023/02/24 13:35:49;;;;;;;19.67;9.15;;;;;;;;;;4390871;32;389256;-80
2023/02/24 13:38:27;;;;;;;25.92;8.40;;;;;;;;;;4395373;32;318367;-82
2023/02/24 13:40:54;;;;;;;30.20;9.55;;;;;;;;;;4404491;32;317757;-82
2023/02/24 13:43:28;;;;;;;24.73;8.93;;;;;;;;;;4395067;32;317800;-83
2023/02/24 13:45:59;;;;;;;20.87;9.17;;;;;;;;;;4404807;32;317746;-81
2023/02/24 13:48:59;;;;;;;29.33;10.17;;;;;;;;;;4393682;32;340336;-81
2023/02/24 13:51:51;;;;;;;27.80;9.43;;;;;;;;;;4394138;32;335939;-83
2023/02/24 13:54:29;;;;;;;28.60;9.93;;;;;;;;;;4391005;32;317813;-79
2023/02/24 13:57:04;;;;;;;20.83;9.15;;;;;;;;;;4405554;32;317728;-82
2023/02/24 13:59:53;;;;;;;32.97;8.65;;;;;;;;;;4392062;32;317753;-80
2023/02/24 14:02:23;;;;;;;24.52;7.55;;;;;;;;;;4394164;32;317943;-81
2023/02/24 14:04:52;;;;;;;23.73;10.73;;;;;;;;;;4403447;32;317786;-79
2023/02/24 14:07:22;;;;;;;16.48;10.75;;;;;;;;;;4394565;32;318735;-85
2023/02/24 14:09:54;;;;;;;27.05;10.02;;;;;;;;;;4403420;32;318859;-81
2023/02/24 14:12:25;;;;;;;30.88;9.35;;;;;;;;;;4393575;32;318809;-83
2023/02/24 14:14:55;;;;;;;27.87;9.20;;;;;;;;;;4402772;32;317702;-85
2023/02/24 14:17:27;;;;;;;25.00;8.50;;;;;;;;;;4390344;32;348707;-81
2023/02/24 14:19:55;;;;;;;35.80;10.15;;;;;;;;;;4401847;32;318016;-81
2023/02/24 14:22:23;;;;;;;32.70;10.93;;;;;;;;;;4392688;32;318948;-83
2023/02/24 14:25:02;;;;;;;23.67;9.52;;;;;;;;;;4401389;32;330532;-81
2023/02/24 14:27:29;;;;;;;20.37;9.60;;;;;;;;;;4390924;32;317894;-82
2023/02/24 14:29:59;;;;;;;23.55;10.63;;;;;;;;;;4402409;32;317741;-80
2023/02/24 14:32:29;;;;;;;29.47;11.40;;;;;;;;;;4390285;32;337295;-82
2023/02/24 14:34:56;;;;;;;25.77;10.13;;;;;;;;;;4402522;32;319310;-82
2023/02/24 14:37:26;;;;;;;24.77;10.95;;;;;;;;;;4392166;32;318578;-82
2023/02/24 14:39:56;;;;;;;32.05;10.15;;;;;;;;;;4403054;32;318752;-82
2023/02/24 14:42:24;;;;;;;36.70;13.35;;;;;;;;;;4391363;32;318627;-81
2023/02/24 14:44:53;;;;;;;38.40;13.52;;;;;;;;;;4400382;32;318705;-84
2023/02/24 14:47:25;;;;;;;31.27;10.55;;;;;;;;;;4391864;32;318937;-85
2023/02/24 14:49:55;;;;;;;33.95;13.25;;;;;;;;;;4401783;32;318913;-82
2023/02/24 14:52:30;;;;;;;38.35;12.70;;;;;;;;;;4391926;32;350767;-81
2023/02/24 14:55:02;;;;;;;33.28;14.30;;;;;;;;;;4401502;32;318685;-81
2023/02/24 14:57:33;;;;;;;27.75;11.12;;;;;;;;;;4392628;32;318762;-83
2023/02/24 15:00:09;;;;;;;30.33;10.98;;;;;;;;;;4402914;32;318740;-83